Time;durP1;ratioP1;P1;durP2;ratioP2;P2;SDS_P1;SDS_P2;PMS_P1;PMS_P2;Temp;Humidity;BMP_temperature;BMP_pressure;BME280_temperature;BME280_humidity;BME280_pressure;Samples;Min_cycle;Max_cycle;Signal;HPM_P1;HPM_P2
2022/12/03 00:02:05;;;;;;;21.58;10.98;;;3.20;99.90;;;;;;5105603;27;20062;-82
2022/12/03 00:04:30;;;;;;;23.42;11.57;;;3.20;99.90;;;;;;5095875;28;20040;-82
2022/12/03 00:06:56;;;;;;;20.67;10.07;;;3.20;99.90;;;;;;5106162;27;20077;-82
2022/12/03 00:09:21;;;;;;;20.42;10.63;;;3.30;99.90;;;;;;5114940;27;20084;-83
2022/12/03 00:11:47;;;;;;;22.02;10.95;;;3.30;99.90;;;;;;5097176;27;20043;-83
2022/12/03 00:14:12;;;;;;;22.13;10.00;;;3.30;99.90;;;;;;5115931;27;20043;-82
2022/12/03 00:16:38;;;;;;;22.20;10.50;;;3.40;99.90;;;;;;5095708;27;20042;-81
2022/12/03 00:19:05;;;;;;;19.67;10.45;;;3.40;99.90;;;;;;5112083;27;20043;-83
2022/12/03 00:21:30;;;;;;;16.60;9.43;;;3.40;99.90;;;;;;5106489;27;20035;-83
2022/12/03 00:23:56;;;;;;;19.08;10.40;;;3.40;99.90;;;;;;5105523;28;20022;-81
2022/12/03 00:26:21;;;;;;;17.63;9.43;;;3.40;99.90;;;;;;5112386;27;20039;-82
2022/12/03 00:28:47;;;;;;;17.55;9.57;;;3.50;99.90;;;;;;5090480;28;20118;-84
2022/12/03 00:31:12;;;;;;;18.48;9.93;;;3.50;99.90;;;;;;5108107;28;20110;-85
2022/12/03 00:33:38;;;;;;;18.00;9.02;;;3.50;99.90;;;;;;5106779;28;20118;-86
2022/12/03 00:36:04;;;;;;;18.88;9.80;;;3.50;99.90;;;;;;5080886;28;20031;-82
2022/12/03 00:38:29;;;;;;;17.63;10.18;;;3.60;99.90;;;;;;5123580;27;20031;-82
2022/12/03 00:40:55;;;;;;;19.13;10.18;;;3.60;99.90;;;;;;5088274;27;20042;-82
2022/12/03 00:43:20;;;;;;;16.83;9.73;;;3.60;99.90;;;;;;5108904;27;20035;-82
2022/12/03 00:45:46;;;;;;;17.30;9.57;;;3.60;99.90;;;;;;5113879;27;20058;-81
2022/12/03 00:48:11;;;;;;;17.17;9.50;;;3.60;99.90;;;;;;5100452;28;20481;-83
2022/12/03 00:50:37;;;;;;;16.77;10.18;;;3.60;99.90;;;;;;5086043;28;20035;-81
2022/12/03 00:53:02;;;;;;;17.77;10.30;;;3.60;99.90;;;;;;5083159;28;20043;-83
2022/12/03 00:55:28;;;;;;;18.60;10.70;;;3.60;99.90;;;;;;5099111;28;20083;-83
2022/12/03 00:57:53;;;;;;;17.17;10.07;;;3.60;99.90;;;;;;5099238;28;20489;-81
2022/12/03 01:00:23;;;;;;;19.80;9.88;;;3.60;99.90;;;;;;5096584;27;20040;-84
2022/12/03 01:02:50;;;;;;;17.35;9.75;;;3.60;99.90;;;;;;5119966;27;20050;-82
2022/12/03 01:05:16;;;;;;;17.63;10.00;;;3.60;99.90;;;;;;5087095;28;20063;-83
2022/12/03 01:07:41;;;;;;;20.20;10.90;;;3.60;99.90;;;;;;5099309;28;20038;-83
2022/12/03 01:10:07;;;;;;;19.20;10.48;;;3.60;99.90;;;;;;5117660;27;20043;-82
2022/12/03 01:12:33;;;;;;;19.50;10.73;;;3.60;99.90;;;;;;5114062;27;20039;-82
2022/12/03 01:14:58;;;;;;;18.77;10.90;;;3.50;99.90;;;;;;5119578;27;20043;-83
2022/12/03 01:17:24;;;;;;;19.35;10.93;;;3.50;99.90;;;;;;5118668;27;20552;-83
2022/12/03 01:19:51;;;;;;;20.33;11.32;;;3.60;99.90;;;;;;5101488;27;20067;-81
2022/12/03 01:22:17;;;;;;;20.55;11.00;;;3.60;99.90;;;;;;5103039;27;20216;-84
2022/12/03 01:24:42;;;;;;;20.70;11.45;;;3.50;99.90;;;;;;5103316;27;20046;-84
2022/12/03 01:27:08;;;;;;;21.42;11.32;;;3.70;99.90;;;;;;5107479;28;20413;-82
2022/12/03 01:29:33;;;;;;;19.73;11.70;;;3.70;99.90;;;;;;5082214;28;20043;-84
2022/12/03 01:32:18;;;;;;;18.92;10.60;;;3.70;99.90;;;;;;5109974;28;20036;-85
2022/12/03 01:34:52;;;;;;;21.02;11.32;;;3.70;99.90;;;;;;5099015;28;20073;-82
2022/12/03 01:37:19;;;;;;;20.08;10.85;;;3.70;99.90;;;;;;5099716;27;20504;-83
2022/12/03 01:39:45;;;;;;;19.98;11.13;;;3.60;99.90;;;;;;5114936;28;20170;-83
2022/12/03 01:42:16;;;;;;;20.02;11.48;;;3.60;99.90;;;;;;5107606;27;20058;-82
2022/12/03 01:44:42;;;;;;;19.48;10.70;;;3.60;99.90;;;;;;5112214;27;20035;-84
2022/12/03 01:47:13;;;;;;;19.83;11.25;;;3.60;99.90;;;;;;5116676;27;20430;-83
2022/12/03 01:49:55;;;;;;;19.30;11.30;;;3.50;99.90;;;;;;5108387;27;20072;-83
2022/12/03 01:52:25;;;;;;;20.67;11.57;;;3.50;99.90;;;;;;5112934;27;20042;-82
2022/12/03 01:54:54;;;;;;;19.52;11.23;;;3.40;99.90;;;;;;5094418;27;20039;-83
2022/12/03 01:57:31;;;;;;;21.58;10.85;;;3.40;99.90;;;;;;5111808;27;20039;-84
2022/12/03 01:59:58;;;;;;;19.30;10.50;;;3.30;99.90;;;;;;5105062;27;20035;-81
2022/12/03 02:02:27;;;;;;;18.60;11.15;;;3.30;99.90;;;;;;5105280;27;20019;-82
2022/12/03 02:04:53;;;;;;;20.55;10.93;;;3.20;99.90;;;;;;5095932;27;20032;-84
2022/12/03 02:07:25;;;;;;;21.42;10.88;;;3.20;99.90;;;;;;5102582;27;20512;-85
2022/12/03 02:09:52;;;;;;;21.95;11.82;;;3.20;99.90;;;;;;5107061;28;20500;-85
2022/12/03 02:12:21;;;;;;;22.17;12.13;;;3.20;99.90;;;;;;5095438;27;20159;-84
2022/12/03 02:14:48;;;;;;;20.92;11.68;;;3.20;99.90;;;;;;5094174;28;20039;-83
2022/12/03 02:17:13;;;;;;;21.45;11.10;;;3.20;99.90;;;;;;5114235;27;20039;-83
2022/12/03 02:19:39;;;;;;;22.17;12.13;;;3.20;99.90;;;;;;5111169;27;20080;-81
2022/12/03 02:22:15;;;;;;;23.65;11.23;;;3.20;99.90;;;;;;5109322;28;20035;-83
2022/12/03 02:24:50;;;;;;;21.08;11.23;;;3.20;99.90;;;;;;5087256;28;20062;-83
2022/12/03 02:27:16;;;;;;;21.10;11.38;;;3.20;99.90;;;;;;5107587;28;20092;-83
2022/12/03 02:29:41;;;;;;;23.02;12.82;;;3.20;99.90;;;;;;5111194;27;20039;-82
2022/12/03 02:32:07;;;;;;;20.63;11.65;;;3.20;99.90;;;;;;5092391;27;20031;-83
2022/12/03 02:34:43;;;;;;;23.05;12.02;;;3.20;99.90;;;;;;5089348;27;20035;-82
2022/12/03 02:37:29;;;;;;;21.90;11.52;;;3.20;99.90;;;;;;5087734;27;20047;-83
2022/12/03 02:39:59;;;;;;;22.17;11.93;;;3.20;99.90;;;;;;5083948;28;20043;-81
2022/12/03 02:42:34;;;;;;;23.63;12.38;;;3.30;99.90;;;;;;5114435;27;20130;-81
2022/12/03 02:45:13;;;;;;;21.88;11.75;;;3.30;99.90;;;;;;5104364;27;20043;-85
2022/12/03 02:47:55;;;;;;;22.65;12.18;;;3.30;99.90;;;;;;5101100;27;20039;-82
2022/12/03 02:50:25;;;;;;;24.45;12.00;;;3.20;99.90;;;;;;5094140;27;21555;-84
2022/12/03 02:52:52;;;;;;;21.50;12.45;;;3.20;99.90;;;;;;5111213;27;20084;-83
2022/12/03 02:55:19;;;;;;;21.13;12.10;;;3.30;99.90;;;;;;5103666;27;20047;-82
2022/12/03 02:57:46;;;;;;;21.85;11.82;;;3.20;99.90;;;;;;5102686;27;20054;-83
2022/12/03 03:00:14;;;;;;;21.05;11.68;;;3.20;99.90;;;;;;5102900;27;20068;-82
2022/12/03 03:02:40;;;;;;;21.13;11.20;;;3.20;99.90;;;;;;5101717;27;20031;-83
2022/12/03 03:05:08;;;;;;;19.27;11.25;;;3.20;99.90;;;;;;5107599;27;20119;-82
2022/12/03 03:07:34;;;;;;;21.52;12.15;;;3.20;99.90;;;;;;5107957;27;20015;-83
2022/12/03 03:10:01;;;;;;;23.42;12.02;;;3.20;99.90;;;;;;5095475;27;20389;-83
2022/12/03 03:12:27;;;;;;;21.85;11.80;;;3.20;99.90;;;;;;5090538;27;20156;-82
2022/12/03 03:14:52;;;;;;;20.98;11.63;;;3.20;99.90;;;;;;5085622;28;20057;-82
2022/12/03 03:17:18;;;;;;;20.98;12.02;;;3.20;99.90;;;;;;5088932;27;20412;-82
2022/12/03 03:19:44;;;;;;;22.10;11.63;;;3.20;99.90;;;;;;5088539;27;20549;-84
2022/12/03 03:22:10;;;;;;;23.90;12.80;;;3.20;99.90;;;;;;5098038;27;20027;-84
2022/12/03 03:24:36;;;;;;;22.02;11.95;;;3.20;99.90;;;;;;5088640;28;20036;-83
2022/12/03 03:27:02;;;;;;;19.90;12.13;;;3.20;99.90;;;;;;5099852;27;20046;-82
2022/12/03 03:29:29;;;;;;;20.98;11.82;;;3.40;99.90;;;;;;5102248;27;20047;-83
2022/12/03 03:31:55;;;;;;;24.55;12.15;;;3.20;99.90;;;;;;5110557;27;20118;-83
2022/12/03 03:34:20;;;;;;;22.30;11.93;;;3.20;99.90;;;;;;5108817;27;20081;-83
2022/12/03 03:36:46;;;;;;;21.52;11.80;;;3.20;99.90;;;;;;5107034;27;20046;-83
2022/12/03 03:39:12;;;;;;;19.63;11.43;;;3.20;99.90;;;;;;5109871;27;20136;-82
2022/12/03 03:41:38;;;;;;;22.85;11.93;;;3.10;99.90;;;;;;5114113;27;20077;-82
2022/12/03 03:44:06;;;;;;;22.80;12.50;;;3.10;99.90;;;;;;5099972;27;20122;-84
2022/12/03 03:46:33;;;;;;;21.60;12.27;;;3.10;99.90;;;;;;5116202;27;20083;-82
2022/12/03 03:49:00;;;;;;;21.15;12.07;;;3.10;99.90;;;;;;5100268;27;20035;-82
2022/12/03 03:51:25;;;;;;;21.90;12.15;;;3.00;99.90;;;;;;5098168;28;20065;-82
2022/12/03 03:53:51;;;;;;;21.85;11.85;;;3.00;99.90;;;;;;5079990;28;20047;-82
2022/12/03 03:56:19;;;;;;;21.55;11.70;;;3.00;99.90;;;;;;5096446;28;20114;-84
2022/12/03 03:58:44;;;;;;;22.30;12.13;;;3.00;99.90;;;;;;5099806;28;20036;-81
2022/12/03 04:01:12;;;;;;;23.30;12.45;;;3.00;99.90;;;;;;5095822;28;20036;-83
2022/12/03 04:03:38;;;;;;;21.02;12.43;;;3.00;99.90;;;;;;5096296;28;20493;-86
2022/12/03 04:06:04;;;;;;;24.33;12.90;;;3.00;99.90;;;;;;5096441;28;20293;-82
2022/12/03 04:08:29;;;;;;;22.50;12.60;;;3.00;99.90;;;;;;5096193;28;20109;-84
2022/12/03 04:13:39;;;;;;;21.30;11.73;;;2.90;99.90;;;;;;5107101;27;20047;-81
2022/12/03 04:16:05;;;;;;;20.88;11.82;;;2.90;99.90;;;;;;5106271;28;20122;-84
2022/12/03 04:18:42;;;;;;;21.27;12.13;;;2.90;99.90;;;;;;5105417;28;20039;-81
2022/12/03 04:24:01;;;;;;;22.38;12.93;;;2.90;99.90;;;;;;5110627;28;20043;-83
2022/12/03 04:29:11;;;;;;;21.25;12.13;;;2.90;99.90;;;;;;5111171;28;20480;-81
2022/12/03 04:37:06;;;;;;;23.38;12.43;;;2.90;99.90;;;;;;5113135;28;20043;-82
2022/12/03 04:39:32;;;;;;;21.55;11.90;;;2.90;99.90;;;;;;5104571;28;20036;-83
2022/12/03 04:41:57;;;;;;;23.92;12.50;;;2.90;99.90;;;;;;5107545;28;20038;-83
2022/12/03 04:44:32;;;;;;;22.23;12.00;;;2.90;99.90;;;;;;5105992;28;20508;-82
2022/12/03 04:47:02;;;;;;;23.63;12.70;;;2.90;99.90;;;;;;5093503;28;20053;-82
2022/12/03 04:49:28;;;;;;;20.98;11.55;;;2.90;99.90;;;;;;5095506;28;20042;-83
2022/12/03 04:51:53;;;;;;;23.23;12.02;;;2.90;99.90;;;;;;5111850;28;20054;-81
2022/12/03 04:54:19;;;;;;;24.73;13.60;;;2.90;99.90;;;;;;5100391;28;20067;-84
2022/12/03 04:56:44;;;;;;;21.38;12.30;;;2.90;99.90;;;;;;5116954;28;20039;-85
2022/12/03 04:59:10;;;;;;;22.75;12.20;;;2.90;99.90;;;;;;5110431;28;20072;-83
2022/12/03 05:01:36;;;;;;;24.33;13.30;;;2.90;99.90;;;;;;5106095;28;20092;-81
2022/12/03 05:04:02;;;;;;;21.67;12.90;;;2.90;99.90;;;;;;5096400;28;20028;-84
2022/12/03 05:06:27;;;;;;;22.52;12.52;;;2.90;99.90;;;;;;5103152;28;20122;-84
2022/12/03 05:08:53;;;;;;;22.17;12.38;;;2.90;99.90;;;;;;5106389;28;20090;-84
2022/12/03 05:11:18;;;;;;;23.52;12.13;;;3.00;99.90;;;;;;5114822;28;20560;-83
2022/12/03 05:13:44;;;;;;;25.23;12.82;;;2.90;99.90;;;;;;5109324;28;20520;-82
2022/12/03 05:16:09;;;;;;;25.15;13.45;;;2.90;99.90;;;;;;5114787;28;20075;-82
2022/12/03 05:18:35;;;;;;;28.30;13.88;;;2.90;99.90;;;;;;5096098;28;20193;-84
2022/12/03 05:21:00;;;;;;;24.35;12.52;;;2.90;99.90;;;;;;5115380;28;20035;-82
2022/12/03 05:23:26;;;;;;;24.50;13.10;;;2.90;99.90;;;;;;5109326;28;20035;-84
2022/12/03 05:25:52;;;;;;;24.35;13.20;;;2.90;99.90;;;;;;5087613;27;20773;-83
2022/12/03 05:28:19;;;;;;;23.88;12.38;;;2.90;99.90;;;;;;5116880;27;20035;-82
2022/12/03 05:30:44;;;;;;;24.35;13.10;;;2.90;99.90;;;;;;5100747;27;20038;-84
2022/12/03 05:33:10;;;;;;;23.90;12.48;;;2.80;99.90;;;;;;5089551;27;20044;-84
2022/12/03 05:35:35;;;;;;;21.90;12.27;;;2.80;99.90;;;;;;5099058;28;20084;-81
2022/12/03 05:38:01;;;;;;;23.52;13.05;;;2.80;99.90;;;;;;5100114;27;20043;-84
2022/12/03 05:40:26;;;;;;;23.60;13.27;;;2.80;99.90;;;;;;5114340;27;20032;-83
2022/12/03 05:43:00;;;;;;;22.90;12.98;;;2.80;99.90;;;;;;5094448;27;20035;-83
2022/12/03 05:45:34;;;;;;;23.52;13.07;;;2.80;99.90;;;;;;5114538;27;20058;-83
2022/12/03 05:48:01;;;;;;;25.25;13.32;;;2.80;99.90;;;;;;5100571;27;20031;-84
2022/12/03 05:50:29;;;;;;;26.85;12.73;;;2.90;99.90;;;;;;5091995;27;20039;-82
2022/12/03 05:52:56;;;;;;;23.20;12.13;;;2.80;99.90;;;;;;5086196;28;20043;-84
2022/12/03 05:55:22;;;;;;;21.45;12.50;;;2.80;99.90;;;;;;5110793;27;20067;-84
2022/12/03 05:57:47;;;;;;;25.63;13.48;;;2.80;99.90;;;;;;5113083;27;20046;-83
2022/12/03 06:00:25;;;;;;;24.23;12.85;;;2.80;99.90;;;;;;5116894;27;20083;-83
2022/12/03 06:02:52;;;;;;;25.58;13.57;;;2.80;99.90;;;;;;5096933;27;20084;-84
2022/12/03 06:05:18;;;;;;;25.70;12.57;;;2.80;99.90;;;;;;5113448;27;20381;-84
2022/12/03 06:07:45;;;;;;;24.20;12.77;;;2.80;99.90;;;;;;5116803;27;20496;-83
2022/12/03 06:10:13;;;;;;;21.67;11.80;;;2.80;99.90;;;;;;5094927;27;20063;-82
2022/12/03 06:12:38;;;;;;;23.55;12.40;;;2.80;99.90;;;;;;5116959;27;20046;-82
2022/12/03 06:15:05;;;;;;;22.88;12.52;;;2.80;99.90;;;;;;5114977;27;20043;-83
2022/12/03 06:17:31;;;;;;;25.48;12.70;;;2.80;99.90;;;;;;5093183;27;20035;-82
2022/12/03 06:19:57;;;;;;;23.25;12.45;;;2.70;99.90;;;;;;5110437;28;20085;-85
2022/12/03 06:22:22;;;;;;;23.35;12.73;;;2.80;99.90;;;;;;5116988;27;20039;-85
2022/12/03 06:24:49;;;;;;;25.00;12.77;;;2.80;99.90;;;;;;5114189;27;20038;-83
2022/12/03 06:27:14;;;;;;;24.08;12.40;;;2.80;99.90;;;;;;5091214;27;20092;-81
2022/12/03 06:29:40;;;;;;;25.10;12.75;;;2.80;99.90;;;;;;5110462;27;20406;-84
2022/12/03 06:32:06;;;;;;;25.38;12.85;;;2.80;99.90;;;;;;5111262;28;20042;-85
2022/12/03 06:34:32;;;;;;;23.23;12.52;;;2.80;99.90;;;;;;5088655;27;20043;-84
2022/12/03 06:36:58;;;;;;;24.73;12.63;;;2.80;99.90;;;;;;5109125;27;20093;-82
2022/12/03 06:39:24;;;;;;;24.67;12.48;;;2.80;99.90;;;;;;5109125;27;20093;-85
2022/12/03 06:41:49;;;;;;;25.58;13.05;;;2.80;99.90;;;;;;5099780;28;20035;-84
2022/12/03 06:44:15;;;;;;;25.33;12.18;;;2.80;99.90;;;;;;5117968;27;20070;-82
2022/12/03 06:46:40;;;;;;;22.02;11.27;;;2.70;99.90;;;;;;5096129;27;20036;-85
2022/12/03 06:49:08;;;;;;;22.13;11.73;;;2.70;99.90;;;;;;5115709;27;20023;-82
2022/12/03 06:51:34;;;;;;;25.55;12.45;;;2.70;99.90;;;;;;5108708;27;20032;-84
2022/12/03 06:54:00;;;;;;;23.83;11.50;;;2.70;99.90;;;;;;5113225;27;20031;-82
2022/12/03 06:56:25;;;;;;;25.13;13.05;;;2.70;99.90;;;;;;5117312;27;20063;-83
2022/12/03 06:58:51;;;;;;;23.55;12.45;;;2.70;99.90;;;;;;5108018;28;20427;-83
2022/12/03 07:01:17;;;;;;;20.75;11.52;;;2.70;99.90;;;;;;5100017;28;20027;-83
2022/12/03 07:03:42;;;;;;;22.80;11.88;;;2.70;99.90;;;;;;5101597;27;20043;-81
2022/12/03 07:06:08;;;;;;;24.48;12.32;;;2.70;99.90;;;;;;5115861;27;20040;-81
2022/12/03 07:08:33;;;;;;;24.02;12.02;;;2.70;99.90;;;;;;5095346;27;20134;-83
2022/12/03 07:10:59;;;;;;;23.48;11.90;;;2.70;99.90;;;;;;5118470;27;20052;-82
2022/12/03 07:13:24;;;;;;;23.13;12.18;;;2.70;99.90;;;;;;5095807;28;20034;-84
2022/12/03 07:15:50;;;;;;;23.02;11.90;;;2.70;99.90;;;;;;5084938;27;20412;-85
2022/12/03 07:18:15;;;;;;;25.30;12.75;;;2.70;99.90;;;;;;5109426;27;20325;-81
2022/12/03 07:20:49;;;;;;;24.60;11.25;;;2.70;99.90;;;;;;5112297;27;20188;-85
2022/12/03 07:23:18;;;;;;;22.75;12.60;;;2.70;99.90;;;;;;5090175;27;20042;-85
2022/12/03 07:25:43;;;;;;;22.35;11.95;;;2.70;99.90;;;;;;5116863;27;20031;-84
2022/12/03 07:28:08;;;;;;;22.27;10.77;;;2.70;99.90;;;;;;5115577;27;20031;-82
2022/12/03 07:30:34;;;;;;;23.15;11.45;;;2.70;99.90;;;;;;5106570;27;20500;-84
2022/12/03 07:32:59;;;;;;;21.48;11.75;;;2.70;99.90;;;;;;5115248;27;20088;-84
2022/12/03 07:35:25;;;;;;;23.15;12.10;;;2.70;99.90;;;;;;5097250;27;20039;-85
2022/12/03 07:37:50;;;;;;;23.88;12.23;;;2.70;99.90;;;;;;5086101;28;20039;-85
2022/12/03 07:40:16;;;;;;;23.48;12.43;;;2.70;99.90;;;;;;5099850;27;20041;-84
2022/12/03 07:42:42;;;;;;;23.65;12.55;;;2.70;99.90;;;;;;5101582;27;20162;-84
2022/12/03 07:45:08;;;;;;;23.33;12.45;;;2.70;99.90;;;;;;5108511;27;20084;-84
2022/12/03 07:47:33;;;;;;;23.20;11.52;;;2.70;99.90;;;;;;5106484;27;20035;-83
2022/12/03 07:49:59;;;;;;;23.00;12.70;;;2.70;99.90;;;;;;5111335;28;20130;-84
2022/12/03 07:52:24;;;;;;;25.02;12.48;;;2.70;99.90;;;;;;5099856;27;20046;-85
2022/12/03 07:54:50;;;;;;;27.05;13.63;;;2.70;99.90;;;;;;5112325;27;20045;-84
2022/12/03 07:57:15;;;;;;;24.30;11.32;;;2.60;99.90;;;;;;5087067;27;20042;-84
2022/12/03 07:59:41;;;;;;;22.67;12.23;;;2.60;99.90;;;;;;5094574;27;20511;-82
2022/12/03 08:02:08;;;;;;;21.63;11.07;;;2.60;99.90;;;;;;5110134;27;20031;-84
2022/12/03 08:04:33;;;;;;;23.73;13.20;;;2.60;99.90;;;;;;5113201;27;20039;-83
2022/12/03 08:06:59;;;;;;;24.25;12.80;;;2.60;99.90;;;;;;5103344;28;20489;-84
2022/12/03 08:09:25;;;;;;;26.73;13.55;;;2.60;99.90;;;;;;5097136;27;20035;-84
2022/12/03 08:11:51;;;;;;;23.33;12.20;;;2.60;99.90;;;;;;5092328;27;20039;-81
2022/12/03 08:14:18;;;;;;;24.95;12.70;;;2.60;99.90;;;;;;5103718;28;20065;-83
2022/12/03 08:16:45;;;;;;;24.90;12.93;;;2.50;99.90;;;;;;5101636;28;20409;-83
2022/12/03 08:19:15;;;;;;;25.55;12.77;;;2.50;99.90;;;;;;5095067;28;20546;-84
2022/12/03 08:21:41;;;;;;;24.42;12.65;;;2.50;99.90;;;;;;5095227;28;20040;-85
2022/12/03 08:24:15;;;;;;;25.92;13.38;;;2.50;99.90;;;;;;5095699;28;20035;-83
2022/12/03 08:26:43;;;;;;;24.30;12.57;;;2.50;99.90;;;;;;5081881;28;20065;-83
2022/12/03 08:29:10;;;;;;;23.75;12.30;;;2.50;99.90;;;;;;5096070;28;20118;-84
2022/12/03 08:31:36;;;;;;;24.35;11.80;;;2.50;99.90;;;;;;5094872;28;20107;-82
2022/12/03 08:34:20;;;;;;;23.48;12.68;;;2.50;99.90;;;;;;5081095;27;20115;-86
2022/12/03 08:36:49;;;;;;;26.52;12.63;;;2.50;99.90;;;;;;5108595;27;20038;-83
2022/12/03 08:39:45;;;;;;;23.42;12.43;;;2.40;99.90;;;;;;5104836;27;20454;-84
2022/12/03 08:42:40;;;;;;;23.70;12.15;;;2.50;99.90;;;;;;5091876;28;20436;-85
2022/12/03 08:45:23;;;;;;;24.23;12.77;;;2.50;99.90;;;;;;5103019;28;20039;-84
2022/12/03 08:47:48;;;;;;;27.27;13.20;;;2.40;99.90;;;;;;5078655;28;20032;-85
2022/12/03 08:50:32;;;;;;;27.75;13.02;;;2.40;99.90;;;;;;5105617;27;20441;-84
2022/12/03 08:53:04;;;;;;;;;;;2.40;99.90;;;;;;5111060;27;20629;-83
2022/12/03 08:55:35;;;;;;;26.83;12.90;;;2.50;99.90;;;;;;5104016;28;19916;-83
2022/12/03 08:58:33;;;;;;;25.05;13.40;;;2.50;99.90;;;;;;5111248;27;20039;-83
2022/12/03 09:01:15;;;;;;;23.17;11.85;;;2.50;99.90;;;;;;5100261;27;20058;-83
2022/12/03 09:03:50;;;;;;;24.85;12.82;;;2.50;99.90;;;;;;5106605;27;20529;-84
2022/12/03 09:06:16;;;;;;;27.02;12.95;;;2.50;99.90;;;;;;5116566;27;20084;-82
2022/12/03 09:08:42;;;;;;;26.30;13.40;;;2.40;99.90;;;;;;5087752;27;20043;-84
2022/12/03 09:11:09;;;;;;;26.00;13.27;;;2.50;99.90;;;;;;5112748;27;20035;-84
2022/12/03 09:13:34;;;;;;;25.15;13.18;;;2.50;99.90;;;;;;5102911;27;20042;-84
2022/12/03 09:16:00;;;;;;;23.67;12.70;;;2.50;99.90;;;;;;5120119;27;20027;-83
2022/12/03 09:18:25;;;;;;;26.80;14.45;;;2.50;99.90;;;;;;5118708;27;20031;-83
2022/12/03 09:20:51;;;;;;;26.42;14.18;;;2.50;99.90;;;;;;5101994;27;20407;-82
2022/12/03 09:23:16;;;;;;;25.55;12.98;;;2.50;99.90;;;;;;5118478;27;20575;-82
2022/12/03 09:25:42;;;;;;;25.50;13.13;;;2.50;99.90;;;;;;5085435;28;20412;-82
2022/12/03 09:28:07;;;;;;;24.55;12.68;;;2.50;99.90;;;;;;5099104;28;20574;-84
2022/12/03 09:30:33;;;;;;;27.95;13.95;;;2.40;99.90;;;;;;5101895;27;20504;-83
2022/12/03 09:32:59;;;;;;;32.45;14.50;;;2.50;99.90;;;;;;5115874;27;20152;-83
2022/12/03 09:35:25;;;;;;;29.38;13.98;;;2.40;99.90;;;;;;5086643;28;20084;-83
2022/12/03 09:37:51;;;;;;;30.02;13.90;;;2.40;99.90;;;;;;5099416;28;20079;-82
2022/12/03 09:40:17;;;;;;;28.27;14.63;;;2.40;99.90;;;;;;5099490;28;20043;-82
2022/12/03 09:42:43;;;;;;;30.20;14.90;;;2.50;99.90;;;;;;5099878;28;20408;-82
2022/12/03 09:45:11;;;;;;;28.95;14.77;;;2.40;99.90;;;;;;5099751;27;20106;-82
2022/12/03 09:47:46;;;;;;;24.90;12.77;;;2.40;99.90;;;;;;5112182;28;20123;-83
2022/12/03 09:50:15;;;;;;;30.70;14.23;;;2.40;99.90;;;;;;5115791;27;20557;-84
2022/12/03 09:52:40;;;;;;;27.95;14.80;;;2.40;99.90;;;;;;5117998;27;20470;-84
2022/12/03 09:55:19;;;;;;;28.50;14.55;;;2.50;99.90;;;;;;5110565;27;20070;-85
2022/12/03 09:57:45;;;;;;;29.88;14.63;;;2.50;99.90;;;;;;5113622;27;20053;-80
2022/12/03 10:00:25;;;;;;;27.42;14.18;;;2.40;99.90;;;;;;5113398;27;20532;-81
2022/12/03 10:02:55;;;;;;;28.98;14.75;;;2.40;99.90;;;;;;5094033;27;20066;-82
2022/12/03 10:05:21;;;;;;;27.30;14.35;;;2.40;99.90;;;;;;5115266;27;20042;-83
2022/12/03 10:07:48;;;;;;;28.98;14.27;;;2.40;99.90;;;;;;5108994;27;20678;-82
2022/12/03 10:10:16;;;;;;;28.30;13.65;;;2.40;99.90;;;;;;5093025;27;20031;-80
2022/12/03 10:12:42;;;;;;;33.53;14.73;;;2.40;99.90;;;;;;5103734;28;20036;-83
2022/12/03 10:15:14;;;;;;;30.15;14.13;;;2.40;99.90;;;;;;5111746;27;20543;-83
2022/12/03 10:17:40;;;;;;;28.98;15.60;;;2.50;99.90;;;;;;5098291;28;20123;-84
2022/12/03 10:20:09;;;;;;;31.38;14.50;;;2.40;99.90;;;;;;5094801;27;20099;-81
2022/12/03 10:22:36;;;;;;;29.50;14.65;;;2.40;99.90;;;;;;5113591;27;20039;-83
2022/12/03 10:25:16;;;;;;;30.00;14.30;;;2.50;99.90;;;;;;5110330;27;20034;-82
2022/12/03 10:27:42;;;;;;;27.02;14.05;;;2.40;99.90;;;;;;5094613;27;20115;-81
2022/12/03 10:30:22;;;;;;;26.92;14.50;;;2.50;99.90;;;;;;5114305;27;20050;-82
2022/12/03 10:32:50;;;;;;;28.27;14.50;;;2.50;99.90;;;;;;5116395;27;20448;-85
2022/12/03 10:35:25;;;;;;;29.17;15.15;;;2.50;99.90;;;;;;5115245;27;20031;-84
2022/12/03 10:37:58;;;;;;;26.48;13.93;;;2.60;99.90;;;;;;5115638;27;20054;-82
2022/12/03 10:40:26;;;;;;;29.63;14.93;;;2.60;99.90;;;;;;5094853;27;20080;-84
2022/12/03 10:42:51;;;;;;;29.27;13.50;;;2.60;99.90;;;;;;5120380;27;20031;-83
2022/12/03 10:45:22;;;;;;;27.92;14.52;;;2.60;99.90;;;;;;5092555;28;20036;-84
2022/12/03 10:48:14;;;;;;;27.00;13.65;;;2.60;99.90;;;;;;5108441;27;20070;-82
2022/12/03 10:50:49;;;;;;;26.90;14.23;;;2.60;99.90;;;;;;5107427;27;20046;-83
2022/12/03 10:53:16;;;;;;;28.13;14.70;;;2.60;99.90;;;;;;5106047;28;20040;-82
2022/12/03 10:55:43;;;;;;;27.77;13.60;;;2.60;99.90;;;;;;5109189;28;20032;-84
2022/12/03 10:58:22;;;;;;;27.00;14.48;;;2.60;99.90;;;;;;5106832;28;20524;-83
2022/12/03 11:00:50;;;;;;;28.48;14.05;;;2.60;99.90;;;;;;5080584;27;20068;-84
2022/12/03 11:03:22;;;;;;;29.75;13.98;;;2.60;99.90;;;;;;5085435;27;20055;-83
2022/12/03 11:05:48;;;;;;;24.50;13.52;;;2.60;99.90;;;;;;5111881;27;20039;-83
2022/12/03 11:08:22;;;;;;;29.40;13.93;;;2.50;99.90;;;;;;5090306;27;20084;-81
2022/12/03 11:11:01;;;;;;;25.80;13.45;;;2.50;99.90;;;;;;5112305;27;20404;-82
2022/12/03 11:13:31;;;;;;;28.58;14.82;;;2.50;99.90;;;;;;5108994;27;20130;-83
2022/12/03 11:15:58;;;;;;;25.23;13.60;;;2.50;99.90;;;;;;5090844;27;20066;-82
2022/12/03 11:18:35;;;;;;;30.52;14.93;;;2.40;99.90;;;;;;5108397;27;20039;-81
2022/12/03 11:21:10;;;;;;;29.95;14.50;;;2.50;99.90;;;;;;5109396;27;20039;-82
2022/12/03 11:23:44;;;;;;;29.10;14.25;;;2.40;99.90;;;;;;5110991;27;20027;-81
2022/12/03 11:26:29;;;;;;;27.08;14.23;;;2.50;99.90;;;;;;5080815;28;20040;-82
2022/12/03 11:28:59;;;;;;;30.52;15.00;;;2.50;99.90;;;;;;5110373;27;20039;-82
2022/12/03 11:31:42;;;;;;;28.35;14.93;;;2.40;99.90;;;;;;5092271;27;20416;-80
2022/12/03 11:34:17;;;;;;;27.55;13.90;;;2.50;99.90;;;;;;5114800;27;20142;-82
2022/12/03 11:37:08;;;;;;;24.88;12.90;;;2.50;99.90;;;;;;5106181;27;20046;-82
2022/12/03 11:39:49;;;;;;;28.20;14.50;;;2.50;99.90;;;;;;5107650;28;20102;-83
2022/12/03 11:42:24;;;;;;;24.95;13.73;;;2.50;99.90;;;;;;5100766;27;20043;-84
2022/12/03 11:45:04;;;;;;;27.40;14.30;;;2.60;99.90;;;;;;5127001;27;20040;-84
2022/12/03 11:47:58;;;;;;;30.70;15.75;;;2.80;99.90;;;;;;5104497;27;20118;-81
2022/12/03 11:50:34;;;;;;;25.65;14.20;;;2.60;99.90;;;;;;5112545;27;20043;-81
2022/12/03 11:53:14;;;;;;;29.10;14.75;;;2.60;99.90;;;;;;5095426;27;20114;-83
2022/12/03 11:55:47;;;;;;;27.08;14.38;;;2.60;99.90;;;;;;5113346;27;20054;-83
2022/12/03 11:58:34;;;;;;;28.00;14.82;;;2.60;99.90;;;;;;5107037;27;20069;-82
2022/12/03 12:01:02;;;;;;;29.02;15.23;;;2.60;99.90;;;;;;5107126;27;20067;-82
2022/12/03 12:03:48;;;;;;;28.93;14.10;;;2.60;99.90;;;;;;5088550;27;20385;-83
2022/12/03 12:06:20;;;;;;;28.08;14.10;;;2.70;99.90;;;;;;5089914;27;20039;-82
2022/12/03 12:08:48;;;;;;;31.25;14.63;;;2.60;99.90;;;;;;5107573;27;20039;-81
2022/12/03 12:11:29;;;;;;;27.00;14.13;;;2.60;99.90;;;;;;5102887;27;20043;-82
2022/12/03 12:14:00;;;;;;;29.58;15.23;;;2.60;99.90;;;;;;5109876;27;20126;-83
2022/12/03 12:16:34;;;;;;;27.80;14.38;;;2.60;99.90;;;;;;5099320;27;20095;-81
2022/12/03 12:19:36;;;;;;;26.27;13.95;;;2.60;99.90;;;;;;5103776;27;20416;-83
2022/12/03 12:22:30;;;;;;;31.48;15.73;;;2.60;99.90;;;;;;5102271;27;20043;-81
2022/12/03 12:25:01;;;;;;;29.48;14.70;;;2.60;99.90;;;;;;5108979;27;20045;-83
2022/12/03 12:27:37;;;;;;;29.60;15.45;;;2.60;99.90;;;;;;5089647;27;20043;-81
2022/12/03 12:30:25;;;;;;;27.50;13.60;;;2.60;99.90;;;;;;5101496;28;20043;-81
2022/12/03 12:33:01;;;;;;;30.65;14.55;;;2.60;99.90;;;;;;5103003;27;20043;-83
2022/12/03 12:35:29;;;;;;;28.40;14.57;;;2.60;99.90;;;;;;5097882;27;20043;-83
2022/12/03 12:38:01;;;;;;;30.00;15.05;;;2.60;99.90;;;;;;5106707;28;20039;-83
2022/12/03 12:40:31;;;;;;;33.33;15.63;;;2.60;99.90;;;;;;5106289;28;20102;-83
2022/12/03 12:43:02;;;;;;;32.63;15.20;;;2.60;99.90;;;;;;5104718;28;20081;-81
2022/12/03 12:45:34;;;;;;;26.85;13.75;;;2.50;99.90;;;;;;5118756;28;20469;-83
2022/12/03 12:48:09;;;;;;;27.67;14.80;;;2.50;99.90;;;;;;5106039;28;20063;-83
2022/12/03 12:50:38;;;;;;;28.90;14.25;;;2.50;99.90;;;;;;5120487;28;20043;-81
2022/12/03 12:53:19;;;;;;;29.20;14.73;;;2.50;99.90;;;;;;5114053;28;20039;-81
2022/12/03 12:55:46;;;;;;;27.95;14.18;;;2.50;99.90;;;;;;5106274;27;20054;-82
2022/12/03 12:58:18;;;;;;;30.15;14.73;;;2.50;99.90;;;;;;5097539;28;20112;-81
2022/12/03 13:00:55;;;;;;;28.33;14.43;;;2.50;99.90;;;;;;5113428;28;20094;-80
2022/12/03 13:03:24;;;;;;;29.27;14.88;;;2.50;99.90;;;;;;5105662;28;20035;-79